Time;durP1;ratioP1;P1;durP2;ratioP2;P2;SDS_P1;SDS_P2;PMS_P1;PMS_P2;Temp;Humidity;BMP_temperature;BMP_pressure;BME280_temperature;BME280_humidity;BME280_pressure;Samples;Min_cycle;Max_cycle;Signal;HPM_P1;HPM_P2
2022/01/25 00:29:03;;;;;;;53.30;25.35;;;;;;;;;;6266583;28;20056;-74
2022/01/25 00:32:04;;;;;;;75.25;33.72;;;;;;;;;;6249009;28;20025;-74
2022/01/25 00:35:04;;;;;;;84.35;35.78;;;;;;;;;;6259752;28;20033;-75
2022/01/25 00:38:04;;;;;;;45.40;21.27;;;;;;;;;;6248226;28;20385;-75
2022/01/25 00:41:05;;;;;;;63.17;29.63;;;;;;;;;;6243915;28;20068;-75
2022/01/25 00:44:05;;;;;;;76.95;35.22;;;;;;;;;;6245207;28;20112;-75
2022/01/25 00:47:07;;;;;;;55.85;26.00;;;;;;;;;;6250082;28;20040;-75
2022/01/25 00:50:13;;;;;;;70.13;37.13;;;;;;;;;;6271215;28;20032;-75
2022/01/25 00:56:43;;;;;;;64.82;27.58;;;;;;;;;;6231997;28;20041;-75
2022/01/25 00:59:43;;;;;;;49.53;24.33;;;;;;;;;;6270365;28;20079;-75
2022/01/25 01:02:43;;;;;;;91.30;36.85;;;;;;;;;;6270742;28;20092;-75
2022/01/25 01:05:45;;;;;;;71.83;32.10;;;;;;;;;;6258916;28;20021;-75
2022/01/25 01:08:45;;;;;;;77.47;37.23;;;;;;;;;;6238200;28;20321;-75
2022/01/25 01:12:00;;;;;;;80.03;32.72;;;;;;;;;;6252939;28;20029;-75
2022/01/25 01:15:12;;;;;;;43.78;22.23;;;;;;;;;;6270817;28;20033;-75
2022/01/25 01:31:38;;;;;;;71.82;34.35;;;;;;;;;;6270463;28;20032;-75
2022/01/25 01:35:09;;;;;;;69.22;32.50;;;;;;;;;;6270003;28;20067;-75
2022/01/25 01:44:18;;;;;;;60.60;29.70;;;;;;;;;;6262613;28;20025;-75
2022/01/25 01:47:26;;;;;;;79.43;35.67;;;;;;;;;;6258051;28;20021;-75
2022/01/25 01:50:30;;;;;;;52.80;25.08;;;;;;;;;;6226870;28;20030;-75
2022/01/25 01:53:30;;;;;;;73.60;34.58;;;;;;;;;;6226312;28;20032;-75
2022/01/25 01:56:31;;;;;;;57.05;26.80;;;;;;;;;;6239376;28;20407;-75
2022/01/25 01:59:32;;;;;;;83.80;35.25;;;;;;;;;;6268628;28;20017;-75
2022/01/25 02:02:32;;;;;;;76.32;34.85;;;;;;;;;;6269434;28;20025;-74
2022/01/25 02:05:33;;;;;;;80.50;34.95;;;;;;;;;;6259466;28;20021;-75
2022/01/25 02:08:36;;;;;;;80.25;38.97;;;;;;;;;;6253073;28;20404;-75
2022/01/25 02:11:37;;;;;;;52.05;23.25;;;;;;;;;;6269161;28;20674;-74
2022/01/25 02:14:40;;;;;;;66.13;29.20;;;;;;;;;;6242881;28;20025;-75
2022/01/25 02:24:06;;;;;;;40.13;19.33;;;;;;;;;;6244585;28;20030;-75
2022/01/25 02:27:06;;;;;;;82.82;30.98;;;;;;;;;;6244312;28;20056;-75
2022/01/25 02:30:06;;;;;;;59.40;26.02;;;;;;;;;;6262076;28;20095;-75
2022/01/25 02:33:07;;;;;;;73.10;32.08;;;;;;;;;;6260035;28;20075;-75
2022/01/25 02:36:09;;;;;;;87.88;37.53;;;;;;;;;;6259851;28;20401;-75
2022/01/25 02:39:09;;;;;;;;;;;;;;;;;;6268827;28;20108;-75
2022/01/25 02:42:14;;;;;;;32.90;19.15;;;;;;;;;;6250502;28;19915;-75
2022/01/25 02:45:16;;;;;;;83.43;35.95;;;;;;;;;;6268598;28;20027;-75
2022/01/25 02:48:30;;;;;;;;;;;;;;;;;;6250618;28;20112;-75
2022/01/25 02:51:39;;;;;;;76.65;33.60;;;;;;;;;;6268902;28;19958;-75
2022/01/25 02:54:40;;;;;;;80.90;39.85;;;;;;;;;;6268104;28;20104;-75
2022/01/25 02:57:40;;;;;;;74.82;34.83;;;;;;;;;;6249647;28;20025;-75
2022/01/25 03:00:41;;;;;;;91.93;37.50;;;;;;;;;;6249624;28;20102;-75
2022/01/25 03:03:41;;;;;;;74.53;33.20;;;;;;;;;;6244418;28;20272;-75
2022/01/25 03:06:43;;;;;;;74.47;29.80;;;;;;;;;;6267908;28;20028;-75
2022/01/25 03:09:43;;;;;;;75.75;38.63;;;;;;;;;;6241505;28;20021;-75
2022/01/25 03:12:49;;;;;;;67.75;34.92;;;;;;;;;;6225602;28;20040;-75
2022/01/25 03:18:50;;;;;;;42.77;21.33;;;;;;;;;;6242200;28;20021;-75
2022/01/25 03:21:51;;;;;;;80.07;35.55;;;;;;;;;;6243231;28;20314;-75
2022/01/25 03:24:51;;;;;;;63.40;30.02;;;;;;;;;;6242806;28;20401;-74
2022/01/25 03:27:51;;;;;;;77.60;33.87;;;;;;;;;;6242976;28;20042;-75
2022/01/25 03:30:51;;;;;;;62.30;27.77;;;;;;;;;;6259004;28;20258;-75
2022/01/25 03:33:51;;;;;;;73.38;32.38;;;;;;;;;;6260951;28;20155;-75
2022/01/25 03:36:52;;;;;;;85.15;41.60;;;;;;;;;;6258505;28;20032;-74
2022/01/25 03:39:52;;;;;;;61.80;29.05;;;;;;;;;;6267902;28;20060;-75
2022/01/25 03:42:54;;;;;;;68.60;32.93;;;;;;;;;;6249546;28;20256;-75
2022/01/25 03:46:13;;;;;;;90.85;42.00;;;;;;;;;;6242641;28;20252;-74
2022/01/25 03:52:35;;;;;;;71.55;32.22;;;;;;;;;;6267412;28;20033;-75
2022/01/25 03:55:35;;;;;;;81.72;36.28;;;;;;;;;;6266335;28;20112;-75
2022/01/25 03:58:36;;;;;;;92.72;44.45;;;;;;;;;;6266910;28;20365;-75
2022/01/25 04:01:36;;;;;;;83.75;41.58;;;;;;;;;;6267506;28;20099;-74
2022/01/25 04:04:36;;;;;;;80.53;35.83;;;;;;;;;;6264649;28;20044;-75
2022/01/25 04:07:48;;;;;;;81.83;36.10;;;;;;;;;;6243458;28;20088;-74
2022/01/25 04:10:48;;;;;;;75.85;37.17;;;;;;;;;;6267545;28;20367;-75
2022/01/25 04:13:52;;;;;;;65.82;29.25;;;;;;;;;;6267888;28;20377;-75
2022/01/25 04:16:59;;;;;;;76.00;33.13;;;;;;;;;;6271444;28;20506;-74
2022/01/25 04:20:25;;;;;;;74.32;30.55;;;;;;;;;;6271682;28;20025;-74
2022/01/25 04:26:38;;;;;;;78.90;32.78;;;;;;;;;;6271829;28;20499;-74
2022/01/25 04:29:39;;;;;;;70.22;35.90;;;;;;;;;;6271301;28;20128;-74
2022/01/25 04:52:09;;;;;;;63.20;28.33;;;;;;;;;;6271197;28;20029;-75
2022/01/25 04:55:19;;;;;;;89.25;39.75;;;;;;;;;;6271741;28;20025;-74
2022/01/25 04:58:28;;;;;;;71.95;36.05;;;;;;;;;;6270723;28;20052;-75
2022/01/25 05:01:28;;;;;;;67.90;33.60;;;;;;;;;;6270594;28;20120;-74
2022/01/25 05:04:33;;;;;;;74.18;36.90;;;;;;;;;;6269003;28;20021;-75
2022/01/25 05:07:54;;;;;;;80.07;34.40;;;;;;;;;;6246593;28;20468;-75
2022/01/25 05:11:43;;;;;;;81.75;41.35;;;;;;;;;;6270760;28;20024;-75
2022/01/25 05:14:45;;;;;;;82.40;39.38;;;;;;;;;;6256004;28;20146;-74
2022/01/25 05:17:44;;;;;;;63.72;27.92;;;;;;;;;;6269396;28;20029;-74
2022/01/25 05:24:03;;;;;;;66.47;31.10;;;;;;;;;;6270283;28;20497;-75
2022/01/25 05:27:04;;;;;;;62.03;27.80;;;;;;;;;;6270269;28;20042;-74
2022/01/25 05:30:04;;;;;;;57.55;24.17;;;;;;;;;;6269958;28;20060;-75
2022/01/25 05:33:04;;;;;;;61.78;26.50;;;;;;;;;;6252151;28;20031;-75
2022/01/25 05:36:05;;;;;;;79.70;36.85;;;;;;;;;;6264065;28;20028;-75
2022/01/25 05:39:16;;;;;;;69.82;35.47;;;;;;;;;;6269608;28;20373;-75
2022/01/25 05:48:50;;;;;;;52.80;23.77;;;;;;;;;;6262779;28;20048;-74
2022/01/25 05:51:50;;;;;;;30.93;19.43;;;;;;;;;;6270207;28;20024;-74
2022/01/25 05:54:51;;;;;;;89.53;37.05;;;;;;;;;;6269998;28;20259;-74
2022/01/25 05:57:51;;;;;;;71.82;35.08;;;;;;;;;;6268582;28;20033;-74
2022/01/25 06:00:51;;;;;;;86.00;36.90;;;;;;;;;;6265234;28;20104;-74
2022/01/25 06:03:53;;;;;;;75.73;33.10;;;;;;;;;;6269212;28;20266;-75
2022/01/25 06:06:54;;;;;;;50.65;24.05;;;;;;;;;;6234971;28;20771;-75
2022/01/25 06:09:54;;;;;;;90.38;39.40;;;;;;;;;;6247311;28;20024;-75
2022/01/25 06:12:54;;;;;;;39.85;19.88;;;;;;;;;;6226477;28;20025;-75
2022/01/25 06:15:54;;;;;;;43.90;23.53;;;;;;;;;;6245714;28;20384;-75
2022/01/25 06:18:55;;;;;;;72.18;32.78;;;;;;;;;;6243963;28;20310;-75
2022/01/25 06:21:55;;;;;;;70.72;31.98;;;;;;;;;;6226159;28;20288;-75
2022/01/25 06:24:55;;;;;;;76.00;35.03;;;;;;;;;;6265576;28;20388;-75
2022/01/25 06:27:56;;;;;;;42.77;21.03;;;;;;;;;;6266102;28;20332;-74
2022/01/25 06:30:56;;;;;;;76.63;34.15;;;;;;;;;;6248112;28;20263;-74
2022/01/25 06:33:56;;;;;;;41.30;23.20;;;;;;;;;;6245628;28;20006;-74
2022/01/25 06:36:56;;;;;;;57.38;28.63;;;;;;;;;;6235286;28;20283;-74
2022/01/25 06:39:58;;;;;;;60.25;25.85;;;;;;;;;;6264662;28;20009;-75
2022/01/25 06:42:58;;;;;;;32.97;16.27;;;;;;;;;;6233032;28;20047;-75
2022/01/25 06:46:03;;;;;;;89.60;38.87;;;;;;;;;;6255129;28;20735;-75
2022/01/25 06:49:03;;;;;;;81.78;38.55;;;;;;;;;;6252415;28;20280;-75
2022/01/25 06:52:04;;;;;;;60.40;24.60;;;;;;;;;;6255186;28;20036;-75
2022/01/25 06:55:05;;;;;;;89.00;39.25;;;;;;;;;;6243924;28;20416;-74
2022/01/25 06:58:05;;;;;;;67.90;34.73;;;;;;;;;;6267818;28;20027;-75
2022/01/25 07:01:05;;;;;;;64.83;29.30;;;;;;;;;;6266326;28;20028;-75
2022/01/25 07:04:05;;;;;;;82.70;37.17;;;;;;;;;;6266339;28;20255;-75
2022/01/25 07:07:06;;;;;;;51.58;27.33;;;;;;;;;;6233953;28;20040;-75
2022/01/25 07:10:07;;;;;;;94.18;42.90;;;;;;;;;;6230877;28;20013;-75
2022/01/25 07:13:07;;;;;;;87.80;38.13;;;;;;;;;;6236972;28;20032;-74
2022/01/25 07:16:08;;;;;;;64.38;30.35;;;;;;;;;;6250744;28;20035;-75
2022/01/25 07:19:08;;;;;;;91.63;43.78;;;;;;;;;;6249872;28;20035;-75
2022/01/25 07:22:08;;;;;;;83.85;37.47;;;;;;;;;;6254200;28;20013;-75
2022/01/25 07:25:10;;;;;;;87.35;38.53;;;;;;;;;;6253911;28;20329;-75
2022/01/25 07:28:10;;;;;;;72.18;33.78;;;;;;;;;;6243435;28;20464;-75
2022/01/25 07:31:10;;;;;;;102.30;48.40;;;;;;;;;;6255689;28;20025;-74
2022/01/25 07:34:11;;;;;;;80.47;40.33;;;;;;;;;;6247924;28;20028;-74
2022/01/25 07:37:11;;;;;;;50.00;26.63;;;;;;;;;;6251560;28;20029;-74
2022/01/25 07:40:12;;;;;;;64.43;27.80;;;;;;;;;;6249713;28;20373;-74
2022/01/25 07:43:12;;;;;;;60.55;31.20;;;;;;;;;;6259820;28;20020;-74
2022/01/25 07:46:15;;;;;;;42.88;24.95;;;;;;;;;;6263061;28;20459;-74
2022/01/25 07:49:15;;;;;;;57.58;28.73;;;;;;;;;;6260913;28;20099;-74
2022/01/25 07:52:16;;;;;;;58.50;30.50;;;;;;;;;;6263976;28;20455;-75
2022/01/25 07:55:16;;;;;;;84.00;41.85;;;;;;;;;;6233628;28;20283;-74
2022/01/25 07:58:16;;;;;;;106.43;56.05;;;;;;;;;;6266369;28;20025;-74
2022/01/25 08:01:17;;;;;;;72.13;36.63;;;;;;;;;;6272401;28;20055;-74
2022/01/25 08:04:18;;;;;;;103.95;47.55;;;;;;;;;;6250513;28;20021;-74
2022/01/25 08:07:18;;;;;;;95.05;43.92;;;;;;;;;;6270272;28;20020;-75
2022/01/25 08:10:18;;;;;;;66.57;29.15;;;;;;;;;;6270968;28;20025;-74
2022/01/25 08:13:18;;;;;;;87.20;40.70;;;;;;;;;;6271819;28;20043;-74
2022/01/25 08:16:19;;;;;;;85.70;43.13;;;;;;;;;;6254004;28;20025;-75
2022/01/25 08:19:19;;;;;;;106.47;50.08;;;;;;;;;;6256639;28;20291;-75
2022/01/25 08:22:20;;;;;;;102.60;48.17;;;;;;;;;;6246403;28;20028;-74
2022/01/25 08:25:20;;;;;;;81.68;37.00;;;;;;;;;;6265111;28;20385;-74
2022/01/25 08:28:21;;;;;;;78.50;40.42;;;;;;;;;;6270431;28;20053;-75
2022/01/25 08:31:21;;;;;;;86.18;43.75;;;;;;;;;;6253442;28;20072;-75
2022/01/25 08:34:22;;;;;;;81.22;38.33;;;;;;;;;;6253724;28;20028;-76
2022/01/25 08:37:22;;;;;;;90.43;46.65;;;;;;;;;;6260738;28;20369;-76
2022/01/25 08:40:22;;;;;;;83.90;40.90;;;;;;;;;;6261566;28;20024;-77
2022/01/25 08:43:24;;;;;;;97.53;47.08;;;;;;;;;;6243016;28;20363;-77
2022/01/25 08:46:24;;;;;;;110.40;55.58;;;;;;;;;;6251353;28;20029;-76
2022/01/25 08:49:24;;;;;;;116.80;55.78;;;;;;;;;;6264482;28;20067;-76
2022/01/25 08:52:25;;;;;;;95.75;51.40;;;;;;;;;;6265682;28;20353;-76
2022/01/25 08:55:25;;;;;;;93.03;47.20;;;;;;;;;;6242993;28;20028;-76
2022/01/25 08:58:26;;;;;;;109.05;54.10;;;;;;;;;;6269200;28;20017;-76
2022/01/25 09:01:27;;;;;;;106.72;54.33;;;;;;;;;;6264656;28;20488;-76
2022/01/25 09:04:28;;;;;;;98.95;49.40;;;;;;;;;;6244049;28;20147;-75
2022/01/25 09:07:28;;;;;;;104.70;50.53;;;;;;;;;;6242953;28;20027;-75
2022/01/25 09:10:28;;;;;;;138.13;66.70;;;;;;;;;;6264003;28;20432;-75
2022/01/25 09:13:29;;;;;;;154.23;81.43;;;;;;;;;;6269735;28;20334;-75
2022/01/25 09:16:29;;;;;;;125.50;59.70;;;;;;;;;;6251436;28;20263;-74
2022/01/25 09:19:30;;;;;;;84.75;44.85;;;;;;;;;;6263486;28;20430;-74
2022/01/25 09:22:30;;;;;;;106.30;51.90;;;;;;;;;;6267068;28;20017;-75
2022/01/25 09:25:31;;;;;;;119.60;65.55;;;;;;;;;;6259121;28;20017;-75
2022/01/25 09:28:31;;;;;;;106.88;56.92;;;;;;;;;;6256099;28;20128;-75
2022/01/25 09:31:31;;;;;;;97.63;50.23;;;;;;;;;;6260309;28;20029;-76
2022/01/25 09:34:32;;;;;;;92.60;46.63;;;;;;;;;;6263636;28;20299;-76
2022/01/25 09:37:32;;;;;;;94.93;43.38;;;;;;;;;;6261449;28;20072;-77
2022/01/25 09:40:33;;;;;;;179.48;84.88;;;;;;;;;;6237355;28;20029;-76
2022/01/25 09:43:33;;;;;;;108.03;55.58;;;;;;;;;;6261067;28;20021;-75
2022/01/25 09:46:33;;;;;;;55.92;28.15;;;;;;;;;;6262637;28;20106;-76
2022/01/25 09:49:34;;;;;;;107.53;53.92;;;;;;;;;;6258408;28;20116;-76
2022/01/25 09:52:34;;;;;;;93.22;42.30;;;;;;;;;;6261901;28;20033;-76
2022/01/25 09:55:36;;;;;;;94.75;43.47;;;;;;;;;;6248216;28;20032;-77
2022/01/25 09:58:36;;;;;;;57.97;25.73;;;;;;;;;;6259757;28;20020;-77
2022/01/25 10:01:37;;;;;;;75.45;34.55;;;;;;;;;;6258309;28;20065;-77
2022/01/25 10:04:40;;;;;;;79.55;41.92;;;;;;;;;;6239971;28;20031;-78
2022/01/25 10:07:41;;;;;;;96.45;42.63;;;;;;;;;;6268778;28;20017;-78
2022/01/25 10:10:42;;;;;;;100.83;46.63;;;;;;;;;;6269154;28;20017;-78
2022/01/25 10:13:48;;;;;;;57.35;28.00;;;;;;;;;;6246377;28;20343;-78
2022/01/25 10:16:52;;;;;;;98.35;41.42;;;;;;;;;;6236346;28;20451;-77
2022/01/25 10:19:52;;;;;;;74.63;33.85;;;;;;;;;;6259527;28;20040;-76
2022/01/25 10:22:53;;;;;;;85.07;40.88;;;;;;;;;;6247569;28;20013;-76
2022/01/25 10:25:54;;;;;;;105.30;53.08;;;;;;;;;;6234873;28;20291;-76
2022/01/25 10:28:54;;;;;;;84.67;34.83;;;;;;;;;;6263160;28;20040;-75
2022/01/25 10:31:59;;;;;;;83.57;37.45;;;;;;;;;;6257917;28;20420;-75
2022/01/25 10:34:59;;;;;;;45.88;24.58;;;;;;;;;;6229304;28;20009;-75
2022/01/25 10:37:59;;;;;;;88.20;41.83;;;;;;;;;;6241437;28;20021;-74
2022/01/25 10:41:07;;;;;;;93.43;41.73;;;;;;;;;;6246046;28;20403;-74
2022/01/25 10:44:07;;;;;;;110.63;48.58;;;;;;;;;;6262034;28;20646;-74
2022/01/25 10:47:07;;;;;;;112.55;47.45;;;;;;;;;;6272200;28;20024;-73
2022/01/25 10:50:14;;;;;;;101.88;44.03;;;;;;;;;;6266640;28;20028;-74
2022/01/25 10:53:15;;;;;;;96.13;46.00;;;;;;;;;;6267040;28;20021;-74
2022/01/25 10:56:15;;;;;;;84.07;35.72;;;;;;;;;;6265650;28;20013;-74
2022/01/25 10:59:20;;;;;;;96.22;40.78;;;;;;;;;;6266030;28;20443;-73
2022/01/25 11:02:21;;;;;;;128.48;50.63;;;;;;;;;;6261045;28;20006;-73
2022/01/25 11:05:23;;;;;;;114.93;45.42;;;;;;;;;;6250839;28;20083;-72
2022/01/25 11:08:24;;;;;;;120.95;54.40;;;;;;;;;;6248413;28;20021;-73
2022/01/25 11:11:26;;;;;;;88.03;45.07;;;;;;;;;;6266186;28;20025;-72
2022/01/25 11:17:46;;;;;;;81.18;35.58;;;;;;;;;;6266874;28;20025;-72
2022/01/25 11:20:46;;;;;;;72.18;28.85;;;;;;;;;;6265897;28;20440;-72
2022/01/25 11:23:47;;;;;;;84.95;38.97;;;;;;;;;;6266324;28;20036;-72
2022/01/25 11:26:48;;;;;;;73.40;36.60;;;;;;;;;;6248215;28;20024;-71
2022/01/25 11:29:49;;;;;;;71.20;25.87;;;;;;;;;;6265916;28;20060;-71
2022/01/25 11:32:50;;;;;;;76.13;27.33;;;;;;;;;;6266122;28;20459;-71
2022/01/25 11:35:50;;;;;;;46.88;23.95;;;;;;;;;;6261873;28;20025;-71
2022/01/25 11:38:51;;;;;;;85.90;41.25;;;;;;;;;;6244975;28;20038;-71
2022/01/25 11:42:00;;;;;;;45.13;24.33;;;;;;;;;;6257061;28;20095;-71
2022/01/25 11:45:00;;;;;;;81.07;38.30;;;;;;;;;;6265991;28;20381;-71
2022/01/25 11:48:01;;;;;;;56.17;28.80;;;;;;;;;;6247477;28;20013;-71
2022/01/25 11:51:01;;;;;;;93.57;39.35;;;;;;;;;;6248791;28;20303;-70
2022/01/25 11:54:04;;;;;;;54.88;25.65;;;;;;;;;;6243769;28;20025;-70
2022/01/25 11:57:15;;;;;;;53.83;28.08;;;;;;;;;;6251275;28;20013;-70
2022/01/25 12:00:15;;;;;;;52.22;24.25;;;;;;;;;;6246104;28;20514;-70
2022/01/25 12:03:18;;;;;;;54.10;26.50;;;;;;;;;;6234801;28;20017;-70
2022/01/25 12:06:23;;;;;;;61.83;32.75;;;;;;;;;;6257039;28;20048;-70
2022/01/25 12:09:42;;;;;;;45.65;20.10;;;;;;;;;;6266713;28;20480;-70
2022/01/25 12:13:03;;;;;;;63.28;22.08;;;;;;;;;;6259953;28;20021;-70
2022/01/25 12:16:22;;;;;;;62.75;31.20;;;;;;;;;;6249903;28;20546;-70
2022/01/25 12:19:47;;;;;;;44.03;19.70;;;;;;;;;;6243673;28;20014;-71
2022/01/25 12:23:03;;;;;;;46.63;21.15;;;;;;;;;;6262743;28;20024;-70
2022/01/25 12:26:07;;;;;;;69.38;31.90;;;;;;;;;;6252388;28;20469;-70
2022/01/25 12:29:26;;;;;;;37.28;15.98;;;;;;;;;;6251285;28;20067;-71
2022/01/25 12:32:32;;;;;;;44.80;18.90;;;;;;;;;;6266902;28;20381;-70
2022/01/25 12:35:45;;;;;;;35.10;16.80;;;;;;;;;;6267034;28;20024;-70
2022/01/25 12:38:46;;;;;;;;;;;;;;;;;;6248535;28;20025;-70
2022/01/25 12:41:46;;;;;;;59.10;29.95;;;;;;;;;;6261261;28;20265;-70
2022/01/25 12:44:52;;;;;;;54.28;24.77;;;;;;;;;;6249911;28;20017;-71
2022/01/25 12:47:53;;;;;;;31.33;17.10;;;;;;;;;;6246871;28;20029;-70
2022/01/25 12:50:55;;;;;;;36.60;16.00;;;;;;;;;;6257319;28;20061;-71
2022/01/25 12:53:56;;;;;;;47.78;20.98;;;;;;;;;;6263031;28;20016;-71
2022/01/25 12:56:57;;;;;;;47.63;17.87;;;;;;;;;;6244795;28;20090;-71
2022/01/25 12:59:57;;;;;;;29.83;17.00;;;;;;;;;;6249851;28;20025;-71
2022/01/25 13:03:18;;;;;;;32.97;16.97;;;;;;;;;;6257629;28;20267;-71
2022/01/25 13:06:23;;;;;;;45.63;19.38;;;;;;;;;;6246998;28;20974;-71
2022/01/25 13:09:31;;;;;;;35.95;17.58;;;;;;;;;;6261351;28;20484;-71
2022/01/25 13:12:36;;;;;;;32.25;18.25;;;;;;;;;;6249855;28;20643;-71
2022/01/25 13:15:52;;;;;;;43.35;17.90;;;;;;;;;;6252995;28;20025;-71
2022/01/25 13:18:52;;;;;;;46.72;22.17;;;;;;;;;;6265901;28;20024;-71
2022/01/25 13:22:03;;;;;;;31.30;11.57;;;;;;;;;;6269373;28;20029;-71
2022/01/25 13:25:25;;;;;;;62.97;31.40;;;;;;;;;;6265758;28;20021;-71
2022/01/25 13:32:08;;;;;;;43.72;20.25;;;;;;;;;;6250398;28;19913;-72
2022/01/25 13:35:20;;;;;;;23.67;11.80;;;;;;;;;;6264056;28;20097;-72
2022/01/25 13:38:25;;;;;;;49.65;25.65;;;;;;;;;;6233448;28;20102;-72
2022/01/25 13:41:28;;;;;;;71.05;35.90;;;;;;;;;;6243776;28;20105;-72
2022/01/25 13:48:19;;;;;;;67.95;36.90;;;;;;;;;;6247102;28;20025;-72
2022/01/25 13:51:21;;;;;;;61.28;28.77;;;;;;;;;;6261123;28;20095;-72
2022/01/25 13:54:22;;;;;;;39.30;20.77;;;;;;;;;;6269196;28;20028;-72
2022/01/25 13:57:27;;;;;;;47.20;25.45;;;;;;;;;;6249635;28;20111;-72
2022/01/25 14:00:28;;;;;;;48.70;25.10;;;;;;;;;;6256156;28;20040;-72
2022/01/25 14:03:31;;;;;;;44.97;19.58;;;;;;;;;;6238091;28;20025;-72
2022/01/25 14:06:34;;;;;;;30.60;14.93;;;;;;;;;;6253940;28;20370;-72
2022/01/25 14:09:36;;;;;;;40.55;21.25;;;;;;;;;;6242846;28;20055;-72
2022/01/25 14:26:05;;;;;;;54.55;27.35;;;;;;;;;;6243934;28;20029;-72
2022/01/25 14:29:14;;;;;;;45.55;21.50;;;;;;;;;;6247407;28;20045;-72
2022/01/25 14:32:14;;;;;;;33.80;18.50;;;;;;;;;;6266429;28;20488;-72
2022/01/25 14:35:14;;;;;;;52.23;23.73;;;;;;;;;;6266357;28;20020;-72
2022/01/25 14:38:21;;;;;;;54.23;27.80;;;;;;;;;;6262078;28;20299;-75
2022/01/25 14:41:23;;;;;;;41.65;22.50;;;;;;;;;;6266720;28;20302;-72
2022/01/25 14:44:24;;;;;;;36.20;17.00;;;;;;;;;;6267093;28;20020;-71
2022/01/25 14:47:31;;;;;;;41.03;20.58;;;;;;;;;;6266949;28;20032;-71
2022/01/25 14:50:33;;;;;;;55.35;26.95;;;;;;;;;;6247259;28;20025;-72
2022/01/25 14:53:33;;;;;;;32.67;18.13;;;;;;;;;;6245602;28;20039;-72
2022/01/25 14:56:35;;;;;;;84.93;39.50;;;;;;;;;;6259565;28;20020;-71
2022/01/25 14:59:38;;;;;;;58.75;28.50;;;;;;;;;;6259935;28;20021;-71
2022/01/25 15:02:38;;;;;;;68.35;36.60;;;;;;;;;;6247414;28;20012;-71
2022/01/25 15:05:38;;;;;;;59.63;29.27;;;;;;;;;;6266479;28;20044;-71
2022/01/25 15:08:46;;;;;;;61.30;35.13;;;;;;;;;;6263091;28;20936;-71
2022/01/25 15:11:50;;;;;;;48.03;22.60;;;;;;;;;;6266009;28;20056;-71
2022/01/25 15:14:55;;;;;;;50.85;26.27;;;;;;;;;;6251241;28;20029;-71
2022/01/25 15:17:55;;;;;;;63.15;33.88;;;;;;;;;;6242127;28;20037;-71
2022/01/25 15:20:56;;;;;;;56.90;30.17;;;;;;;;;;6241117;28;20485;-71
2022/01/25 15:23:56;;;;;;;74.00;32.72;;;;;;;;;;6241524;28;20021;-71
2022/01/25 15:27:02;;;;;;;43.90;22.40;;;;;;;;;;6241411;28;20056;-71
2022/01/25 15:30:04;;;;;;;48.20;21.83;;;;;;;;;;6232652;28;20059;-71
2022/01/25 15:33:05;;;;;;;57.67;29.23;;;;;;;;;;6235517;28;20074;-71
2022/01/25 15:36:06;;;;;;;39.28;20.83;;;;;;;;;;6249291;28;20025;-71
2022/01/25 15:39:07;;;;;;;61.72;29.27;;;;;;;;;;6249793;28;20045;-71
2022/01/25 15:42:08;;;;;;;63.88;32.40;;;;;;;;;;6245310;28;20009;-71
2022/01/25 15:45:29;;;;;;;47.03;24.50;;;;;;;;;;6245565;28;20389;-71
2022/01/25 15:48:30;;;;;;;51.95;26.88;;;;;;;;;;6248949;28;20117;-71
2022/01/25 15:51:31;;;;;;;42.85;23.83;;;;;;;;;;6252290;28;20031;-71
2022/01/25 15:54:31;;;;;;;61.25;34.08;;;;;;;;;;6237642;28;20485;-71
2022/01/25 15:57:31;;;;;;;47.85;23.30;;;;;;;;;;6248393;28;20028;-71
2022/01/25 16:00:31;;;;;;;23.87;11.47;;;;;;;;;;6245683;28;20439;-71
2022/01/25 16:03:32;;;;;;;52.25;26.30;;;;;;;;;;6247038;28;20260;-71
2022/01/25 16:06:33;;;;;;;63.42;22.88;;;;;;;;;;6226906;28;20025;-71
2022/01/25 16:09:33;;;;;;;82.97;44.17;;;;;;;;;;6259260;28;20043;-71
2022/01/25 16:12:33;;;;;;;54.22;26.73;;;;;;;;;;6269308;28;20103;-71
2022/01/25 16:15:34;;;;;;;49.30;27.55;;;;;;;;;;6265712;28;20032;-71
2022/01/25 16:18:34;;;;;;;90.72;50.83;;;;;;;;;;6271856;28;20057;-71
2022/01/25 16:21:34;;;;;;;74.30;41.03;;;;;;;;;;6253420;28;20047;-71
2022/01/25 16:24:35;;;;;;;96.63;47.78;;;;;;;;;;6271843;28;20097;-71
2022/01/25 16:27:37;;;;;;;59.30;27.08;;;;;;;;;;6252433;28;20044;-71
2022/01/25 16:30:37;;;;;;;113.43;49.75;;;;;;;;;;6258585;28;20475;-71
2022/01/25 16:33:37;;;;;;;83.35;39.22;;;;;;;;;;6242530;28;20048;-71
2022/01/25 16:36:38;;;;;;;80.00;35.78;;;;;;;;;;6241555;28;20018;-71
2022/01/25 16:39:39;;;;;;;63.25;27.90;;;;;;;;;;6233782;28;20342;-71
2022/01/25 16:42:39;;;;;;;73.57;34.03;;;;;;;;;;6257097;28;20414;-71
2022/01/25 16:45:40;;;;;;;57.65;29.15;;;;;;;;;;6253763;28;20516;-71
2022/01/25 16:48:40;;;;;;;72.93;34.03;;;;;;;;;;6255371;28;20968;-70
2022/01/25 16:51:41;;;;;;;80.40;42.28;;;;;;;;;;6257679;28;20496;-70
2022/01/25 16:54:41;;;;;;;65.72;28.25;;;;;;;;;;6271017;28;20060;-70
2022/01/25 16:57:41;;;;;;;100.10;46.65;;;;;;;;;;6270616;28;20035;-70
2022/01/25 17:00:43;;;;;;;123.65;56.92;;;;;;;;;;6270246;28;20024;-70
2022/01/25 17:03:43;;;;;;;108.03;52.10;;;;;;;;;;6253785;28;20105;-70
2022/01/25 17:06:44;;;;;;;105.90;52.00;;;;;;;;;;6265348;28;20017;-70
2022/01/25 17:09:44;;;;;;;91.22;48.85;;;;;;;;;;6264780;28;20048;-70
2022/01/25 17:12:44;;;;;;;53.00;26.83;;;;;;;;;;6252371;28;20026;-70
2022/01/25 17:15:53;;;;;;;67.80;33.53;;;;;;;;;;6229329;28;20159;-71
2022/01/25 17:18:54;;;;;;;47.47;24.77;;;;;;;;;;6226048;28;20350;-71
2022/01/25 17:21:55;;;;;;;54.33;31.03;;;;;;;;;;6251831;28;20017;-71
2022/01/25 17:24:55;;;;;;;63.27;36.20;;;;;;;;;;6262323;28;20021;-71
2022/01/25 17:27:56;;;;;;;58.77;29.87;;;;;;;;;;6262410;28;20009;-71
2022/01/25 17:30:59;;;;;;;40.40;19.88;;;;;;;;;;6254219;28;20264;-71
2022/01/25 17:33:59;;;;;;;62.65;33.90;;;;;;;;;;6260405;28;20036;-71
2022/01/25 17:36:59;;;;;;;84.00;39.80;;;;;;;;;;6243625;28;20107;-71
2022/01/25 17:40:02;;;;;;;53.60;28.30;;;;;;;;;;6259564;28;20280;-71
2022/01/25 17:43:02;;;;;;;41.15;23.42;;;;;;;;;;6264258;28;20578;-71
2022/01/25 17:46:02;;;;;;;68.28;37.88;;;;;;;;;;6261914;28;20013;-71
2022/01/25 17:49:03;;;;;;;73.20;40.70;;;;;;;;;;6268618;28;20067;-71
2022/01/25 17:52:04;;;;;;;66.63;36.92;;;;;;;;;;6269744;28;20052;-71
2022/01/25 17:55:04;;;;;;;62.28;27.50;;;;;;;;;;6269338;28;20029;-71
2022/01/25 17:58:05;;;;;;;64.25;29.30;;;;;;;;;;6264233;28;20020;-71
2022/01/25 18:01:05;;;;;;;83.65;43.13;;;;;;;;;;6265767;28;20381;-71
2022/01/25 18:04:06;;;;;;;59.95;32.08;;;;;;;;;;6249080;28;20022;-71
2022/01/25 18:07:07;;;;;;;45.90;22.02;;;;;;;;;;6268142;28;20032;-70
2022/01/25 18:10:08;;;;;;;85.47;37.50;;;;;;;;;;6269318;28;20378;-71
2022/01/25 18:13:08;;;;;;;69.65;33.15;;;;;;;;;;6268691;28;20393;-70
2022/01/25 18:16:09;;;;;;;57.17;24.92;;;;;;;;;;6269546;28;20349;-70
2022/01/25 18:19:09;;;;;;;51.75;24.63;;;;;;;;;;6269141;28;20298;-70
2022/01/25 18:22:13;;;;;;;50.30;28.98;;;;;;;;;;6268981;28;20021;-70
2022/01/25 18:28:33;;;;;;;84.78;41.00;;;;;;;;;;6268952;28;20053;-70
2022/01/25 18:31:33;;;;;;;104.75;52.67;;;;;;;;;;6268484;28;20503;-70
2022/01/25 18:34:33;;;;;;;76.78;31.02;;;;;;;;;;6267935;28;20104;-70
2022/01/25 18:37:33;;;;;;;48.63;24.70;;;;;;;;;;6262932;28;20070;-70
2022/01/25 18:40:34;;;;;;;44.20;20.90;;;;;;;;;;6268292;28;20279;-70
2022/01/25 18:43:34;;;;;;;61.53;31.37;;;;;;;;;;6267327;28;20021;-70
2022/01/25 18:46:35;;;;;;;73.30;36.40;;;;;;;;;;6250522;28;20608;-70
2022/01/25 18:49:36;;;;;;;72.88;33.28;;;;;;;;;;6268217;28;20263;-70
2022/01/25 18:52:36;;;;;;;90.03;43.13;;;;;;;;;;6264872;28;20037;-70
2022/01/25 18:55:36;;;;;;;84.68;41.08;;;;;;;;;;6248463;28;20029;-70
2022/01/25 18:58:37;;;;;;;89.53;45.33;;;;;;;;;;6231335;28;20033;-71
2022/01/25 19:01:38;;;;;;;78.55;36.47;;;;;;;;;;6249944;28;20270;-71
2022/01/25 19:04:39;;;;;;;51.92;22.30;;;;;;;;;;6236726;28;20060;-71
2022/01/25 19:07:39;;;;;;;77.07;37.43;;;;;;;;;;6246085;28;20026;-71
2022/01/25 19:10:40;;;;;;;80.13;41.95;;;;;;;;;;6268056;28;20025;-71
2022/01/25 19:13:41;;;;;;;70.20;38.08;;;;;;;;;;6267785;28;20025;-71
2022/01/25 19:16:41;;;;;;;75.93;31.60;;;;;;;;;;6267676;28;20016;-71
2022/01/25 19:19:41;;;;;;;53.17;25.67;;;;;;;;;;6267796;28;20031;-71
2022/01/25 19:22:41;;;;;;;46.67;24.75;;;;;;;;;;6267029;28;20463;-71
2022/01/25 19:25:42;;;;;;;51.28;26.60;;;;;;;;;;6267810;28;20511;-71
2022/01/25 19:28:42;;;;;;;61.58;32.85;;;;;;;;;;6267406;28;20061;-71
2022/01/25 19:31:42;;;;;;;63.90;34.70;;;;;;;;;;6264651;28;20105;-71
2022/01/25 19:34:42;;;;;;;47.28;25.77;;;;;;;;;;6225461;28;20109;-71
2022/01/25 19:37:43;;;;;;;67.47;31.30;;;;;;;;;;6261888;28;20032;-71
2022/01/25 19:40:45;;;;;;;89.53;42.97;;;;;;;;;;6257209;28;20044;-71
2022/01/25 19:43:49;;;;;;;68.47;32.30;;;;;;;;;;6252531;28;20074;-71